LOWW

Vienna International Airport

Vienna, Austria
TAF LOWW 171115Z 1712/1818 VRB02KT 9999 BKN012 TX04/1814Z TNM02/1712Z BECMG 1712/1715 35006KT FEW012 BKN030
Issued Valid From Valid To
Dec-17 @ 11:15 UTC
(2 hours ago)
Dec-17 @ 12:00 UTC
(an hour ago)
Dec-18 @ 18:00 UTC
(-1 days ago)
Dec-17 @ 12:00 to Dec-18 @ 18:00
TAF LOWW 171115Z 1712/1818 VRB02KT 9999 BKN012 TX04/1814Z TNM02/1712Z
Wind Visibility Clouds
Variable at 2 knots 10,000+ meters
  • Broken at 1,200' AGL
Becoming Dec-17 @ 12:00 to Dec-18 @ 18:00
BECMG 1712/1715 35006KT FEW012 BKN030
Wind Visibility Clouds
350° at 6 knots 10,000+ meters
  • Few at 1,200' AGL
  • Broken at 3,000' AGL
TAF LOWW 171115Z 1712/1818 VRB02KT 9999 BKN012 TX04/1814Z TNM02/1712Z BECMG 1712/1715 35006KT FEW012 BKN030
Issued Dec-17 @ 11:15 UTC
(2 hours ago)
Valid From Dec-17 @ 12:00 UTC
(an hour ago)
Valid To Dec-18 @ 18:00 UTC
(-1 days ago)
Dec-17 @ 12:00 - Dec-18 @ 18:00
Wind Visibility
Variable at 2 knots 10,000+ meters
Clouds
  • Broken at 1,200' AGL
Becoming Dec-17 @ 12:00 - Dec-18 @ 18:00
Wind Visibility
350° at 6 knots 10,000+ meters
Clouds
  • Few at 1,200' AGL
  • Broken at 3,000' AGL